createdAt,value
2023-03-01T00:00:46.331Z,-2.80
2023-03-01T00:01:36.325Z,-2.82
2023-03-01T00:02:26.380Z,-2.83
2023-03-01T00:03:16.328Z,-2.86
2023-03-01T00:04:06.297Z,-2.87
2023-03-01T00:04:56.290Z,-2.89
2023-03-01T00:05:46.318Z,-2.93
2023-03-01T00:06:36.257Z,-2.93
2023-03-01T00:07:26.262Z,-2.90
2023-03-01T00:08:16.240Z,-2.93
2023-03-01T00:09:06.240Z,-2.94
2023-03-01T00:09:56.247Z,-2.95
2023-03-01T00:10:46.311Z,-2.97
2023-03-01T00:11:36.238Z,-2.97
2023-03-01T00:12:26.212Z,-2.97
2023-03-01T00:13:16.182Z,-3.00
2023-03-01T00:14:06.185Z,-2.98
2023-03-01T00:14:56.180Z,-2.98
2023-03-01T00:15:46.176Z,-2.98
2023-03-01T00:16:36.219Z,-2.97
2023-03-01T00:17:26.174Z,-3.00
2023-03-01T00:18:16.128Z,-2.97
2023-03-01T00:19:06.128Z,-3.00
2023-03-01T00:19:56.136Z,-3.01
2023-03-01T00:20:46.129Z,-3.02
2023-03-01T00:21:36.127Z,-3.01
2023-03-01T00:22:26.104Z,-3.01
2023-03-01T00:23:16.098Z,-3.02
2023-03-01T00:24:06.101Z,-3.04
2023-03-01T00:24:56.072Z,-3.05
2023-03-01T00:25:46.058Z,-3.05
2023-03-01T00:26:36.049Z,-3.05
2023-03-01T00:27:26.057Z,-3.07
2023-03-01T00:28:16.017Z,-3.08
2023-03-01T00:29:06.035Z,-3.10
2023-03-01T00:29:56.021Z,-3.10
2023-03-01T00:30:46.023Z,-3.04
2023-03-01T00:31:36.051Z,-3.02
2023-03-01T00:32:26.040Z,-3.02
2023-03-01T00:33:15.986Z,-3.04
2023-03-01T00:34:05.952Z,-3.07
2023-03-01T00:34:55.990Z,-3.07
2023-03-01T00:35:45.980Z,-3.08
2023-03-01T00:36:35.949Z,-3.08
2023-03-01T00:37:25.946Z,-3.12
2023-03-01T00:38:15.918Z,-3.15
2023-03-01T00:39:05.964Z,-3.13
2023-03-01T00:39:55.925Z,-3.13
2023-03-01T00:40:45.917Z,-3.15
2023-03-01T00:41:35.896Z,-3.13
2023-03-01T00:42:25.877Z,-3.13
2023-03-01T00:43:15.867Z,-3.13
2023-03-01T00:44:05.867Z,-3.16
2023-03-01T00:44:55.878Z,-3.15
2023-03-01T00:45:45.879Z,-3.16
2023-03-01T00:46:36.144Z,-3.13
2023-03-01T00:47:25.863Z,-3.13
2023-03-01T00:48:15.824Z,-3.13
2023-03-01T00:49:05.812Z,-3.13
2023-03-01T00:49:55.799Z,-3.13
2023-03-01T00:50:45.791Z,-3.12
2023-03-01T00:51:35.782Z,-3.12
2023-03-01T00:52:25.785Z,-3.12
2023-03-01T00:53:15.756Z,-3.10
2023-03-01T00:54:05.767Z,-3.13
2023-03-01T00:54:55.746Z,-3.10
2023-03-01T00:55:45.745Z,-3.12
2023-03-01T00:56:35.718Z,-3.10
2023-03-01T00:57:25.728Z,-3.12
2023-03-01T00:58:15.738Z,-3.12
2023-03-01T00:59:05.720Z,-3.15
2023-03-01T00:59:55.683Z,-3.13
2023-03-01T01:00:45.692Z,-3.13
2023-03-01T01:01:35.723Z,-3.12
2023-03-01T01:02:25.708Z,-3.15
2023-03-01T01:03:15.655Z,-3.15
2023-03-01T01:04:05.641Z,-3.16
2023-03-01T01:04:55.659Z,-3.18
2023-03-01T01:05:45.630Z,-3.19
2023-03-01T01:06:35.635Z,-3.19
2023-03-01T01:07:25.610Z,-3.22
2023-03-01T01:08:15.586Z,-3.22
2023-03-01T01:09:05.630Z,-3.22
2023-03-01T01:09:55.593Z,-3.23
2023-03-01T01:10:45.588Z,-3.25
2023-03-01T01:11:35.550Z,-3.23
2023-03-01T01:12:25.571Z,-3.23
2023-03-01T01:13:15.603Z,-3.25
2023-03-01T01:14:05.541Z,-3.26
2023-03-01T01:14:55.515Z,-3.26
2023-03-01T01:15:45.545Z,-3.30
2023-03-01T01:16:35.538Z,-3.30
2023-03-01T01:17:25.505Z,-3.33
2023-03-01T01:18:15.506Z,-3.39
2023-03-01T01:19:05.483Z,-3.41
2023-03-01T01:19:55.473Z,-3.39
2023-03-01T01:20:45.447Z,-3.43
2023-03-01T01:21:35.458Z,-3.39
2023-03-01T01:22:25.437Z,-3.40
2023-03-01T01:23:15.422Z,-3.41
2023-03-01T01:24:05.401Z,-3.40
2023-03-01T01:24:55.422Z,-3.40
2023-03-01T01:25:45.404Z,-3.40
2023-03-01T01:26:35.407Z,-3.41
2023-03-01T01:27:25.377Z,-3.40
2023-03-01T01:28:15.369Z,-3.40
2023-03-01T01:29:05.366Z,-3.39
2023-03-01T01:29:55.359Z,-3.37
2023-03-01T01:30:45.339Z,-3.39
2023-03-01T01:31:35.377Z,-3.40
2023-03-01T01:32:27.072Z,-3.41
2023-03-01T01:33:15.339Z,-3.43
2023-03-01T01:34:05.315Z,-3.41
2023-03-01T01:34:55.307Z,-3.43
2023-03-01T01:35:45.321Z,-3.44
2023-03-01T01:36:35.321Z,-3.44
2023-03-01T01:37:25.281Z,-3.44
2023-03-01T01:38:15.270Z,-3.46
2023-03-01T01:39:05.248Z,-3.46
2023-03-01T01:39:55.238Z,-3.46
2023-03-01T01:40:45.256Z,-3.46
2023-03-01T01:41:35.240Z,-3.46
2023-03-01T01:42:25.229Z,-3.43
2023-03-01T01:43:15.217Z,-3.43
2023-03-01T01:44:05.201Z,-3.43
2023-03-01T01:44:55.194Z,-3.43
2023-03-01T01:45:45.198Z,-3.43
2023-03-01T01:46:35.319Z,-3.49
2023-03-01T01:47:25.161Z,-3.54
2023-03-01T01:48:15.156Z,-3.57
2023-03-01T01:49:05.158Z,-3.55
2023-03-01T01:49:55.138Z,-3.55
2023-03-01T01:50:45.121Z,-3.55
2023-03-01T01:51:35.111Z,-3.52
2023-03-01T01:52:25.113Z,-3.54
2023-03-01T01:53:15.102Z,-3.51
2023-03-01T01:54:05.108Z,-3.47
2023-03-01T01:54:55.091Z,-3.49
2023-03-01T01:55:45.070Z,-3.55
2023-03-01T01:56:35.050Z,-3.59
2023-03-01T01:57:25.058Z,-3.58
2023-03-01T01:58:15.049Z,-3.59
2023-03-01T01:59:05.080Z,-3.59
2023-03-01T01:59:55.030Z,-3.59
2023-03-01T02:00:45.010Z,-3.58
2023-03-01T02:01:35.028Z,-3.58
2023-03-01T02:02:25.119Z,-3.58
2023-03-01T02:03:15.218Z,-3.55
2023-03-01T02:04:04.968Z,-3.54
2023-03-01T02:04:54.969Z,-3.54
2023-03-01T02:05:45.373Z,-3.54
2023-03-01T02:06:34.970Z,-3.54
2023-03-01T02:07:24.970Z,-3.51
2023-03-01T02:08:14.948Z,-3.51
2023-03-01T02:09:04.938Z,-3.52
2023-03-01T02:09:54.928Z,-3.54
2023-03-01T02:10:44.921Z,-3.52
2023-03-01T02:11:34.900Z,-3.51
2023-03-01T02:12:24.898Z,-3.52
2023-03-01T02:13:14.882Z,-3.51
2023-03-01T02:14:04.882Z,-3.47
2023-03-01T02:14:54.857Z,-3.49
2023-03-01T02:15:44.984Z,-3.49
2023-03-01T02:16:35.275Z,-3.55
2023-03-01T02:17:24.830Z,-3.59
2023-03-01T02:18:14.826Z,-3.64
2023-03-01T02:19:04.839Z,-3.69
2023-03-01T02:19:54.812Z,-3.69
2023-03-01T02:20:44.804Z,-3.68
2023-03-01T02:21:34.792Z,-3.69
2023-03-01T02:22:24.831Z,-3.68
2023-03-01T02:23:14.777Z,-3.62
2023-03-01T02:24:04.767Z,-3.65
2023-03-01T02:24:54.785Z,-3.68
2023-03-01T02:25:44.743Z,-3.68
2023-03-01T02:26:34.769Z,-3.68
2023-03-01T02:27:24.721Z,-3.65
2023-03-01T02:28:14.737Z,-3.69
2023-03-01T02:29:04.736Z,-3.70
2023-03-01T02:29:56.293Z,-3.70
2023-03-01T02:30:44.710Z,-3.70
2023-03-01T02:31:34.713Z,-3.74
2023-03-01T02:32:24.725Z,-3.77
2023-03-01T02:33:14.681Z,-3.77
2023-03-01T02:34:04.669Z,-3.79
2023-03-01T02:34:54.643Z,-3.79
2023-03-01T02:35:44.677Z,-3.80
2023-03-01T02:36:34.652Z,-3.77
2023-03-01T02:37:24.651Z,-3.76
2023-03-01T02:38:14.611Z,-3.74
2023-03-01T02:39:04.621Z,-3.69
2023-03-01T02:39:54.622Z,-3.65
2023-03-01T02:40:44.622Z,-3.69
2023-03-01T02:41:34.605Z,-3.65
2023-03-01T02:42:26.885Z,-3.62
2023-03-01T02:43:14.576Z,-3.62
2023-03-01T02:44:04.556Z,-3.64
2023-03-01T02:44:54.561Z,-3.64
2023-03-01T02:45:44.552Z,-3.68
2023-03-01T02:46:34.732Z,-3.65
2023-03-01T02:47:24.534Z,-3.70
2023-03-01T02:48:14.510Z,-3.72
2023-03-01T02:49:04.500Z,-3.74
2023-03-01T02:49:54.531Z,-3.74
2023-03-01T02:50:44.478Z,-3.76
2023-03-01T02:51:34.468Z,-3.79
2023-03-01T02:52:24.487Z,-3.74
2023-03-01T02:53:14.454Z,-3.76
2023-03-01T02:54:04.486Z,-3.72
2023-03-01T02:54:54.447Z,-3.74
2023-03-01T02:55:44.415Z,-3.72
2023-03-01T02:56:34.466Z,-3.76
2023-03-01T02:57:24.439Z,-3.72
2023-03-01T02:58:14.413Z,-3.70
2023-03-01T02:59:04.384Z,-3.70
2023-03-01T02:59:54.387Z,-3.65
2023-03-01T03:00:44.382Z,-3.64
2023-03-01T03:01:34.375Z,-3.64
2023-03-01T03:02:24.342Z,-3.61
2023-03-01T03:03:14.340Z,-3.59
2023-03-01T03:04:04.360Z,-3.59
2023-03-01T03:04:54.357Z,-3.64
2023-03-01T03:05:44.335Z,-3.64
2023-03-01T03:06:34.324Z,-3.69
2023-03-01T03:07:24.303Z,-3.70
2023-03-01T03:08:14.306Z,-3.70
2023-03-01T03:09:04.288Z,-3.68
2023-03-01T03:09:54.275Z,-3.65
2023-03-01T03:10:44.283Z,-3.62
2023-03-01T03:11:34.276Z,-3.61
2023-03-01T03:12:24.254Z,-3.58
2023-03-01T03:13:14.248Z,-3.57
2023-03-01T03:14:04.240Z,-3.57
2023-03-01T03:14:54.211Z,-3.55
2023-03-01T03:15:44.215Z,-3.57
2023-03-01T03:16:34.454Z,-3.59
2023-03-01T03:17:24.190Z,-3.58
2023-03-01T03:18:14.217Z,-3.58
2023-03-01T03:19:04.169Z,-3.61
2023-03-01T03:19:54.167Z,-3.59
2023-03-01T03:20:44.157Z,-3.59
2023-03-01T03:21:34.176Z,-3.57
2023-03-01T03:22:24.139Z,-3.57
2023-03-01T03:23:14.134Z,-3.54
2023-03-01T03:24:04.116Z,-3.54
2023-03-01T03:24:54.111Z,-3.52
2023-03-01T03:25:44.101Z,-3.49
2023-03-01T03:26:34.087Z,-3.47
2023-03-01T03:27:24.115Z,-3.43
2023-03-01T03:28:14.087Z,-3.43
2023-03-01T03:29:04.079Z,-3.44
2023-03-01T03:29:54.059Z,-3.43
2023-03-01T03:30:44.104Z,-3.40
2023-03-01T03:31:34.075Z,-3.39
2023-03-01T03:32:24.078Z,-3.39
2023-03-01T03:33:14.090Z,-3.34
2023-03-01T03:34:04.005Z,-3.31
2023-03-01T03:34:53.985Z,-3.28
2023-03-01T03:35:44.026Z,-3.22
2023-03-01T03:36:34.007Z,-3.23
2023-03-01T03:37:23.985Z,-3.21
2023-03-01T03:38:14.018Z,-3.22
2023-03-01T03:39:03.964Z,-3.21
2023-03-01T03:39:53.944Z,-3.18
2023-03-01T03:40:43.924Z,-3.18
2023-03-01T03:41:33.945Z,-3.15
2023-03-01T03:42:23.947Z,-3.10
2023-03-01T03:43:13.923Z,-3.05
2023-03-01T03:44:03.899Z,-3.02
2023-03-01T03:44:53.937Z,-3.01
2023-03-01T03:45:43.919Z,-3.01
2023-03-01T03:46:34.173Z,-3.00
2023-03-01T03:47:23.884Z,-3.00
2023-03-01T03:48:13.883Z,-2.98
2023-03-01T03:49:03.857Z,-2.95
2023-03-01T03:49:53.842Z,-2.90
2023-03-01T03:50:43.841Z,-2.86
2023-03-01T03:51:33.842Z,-2.80
2023-03-01T03:52:23.831Z,-2.79
2023-03-01T03:53:13.837Z,-2.74
2023-03-01T03:54:03.811Z,-2.71
2023-03-01T03:54:53.789Z,-2.71
2023-03-01T03:55:43.780Z,-2.72
2023-03-01T03:56:34.138Z,-2.71
2023-03-01T03:57:23.764Z,-2.69
2023-03-01T03:58:13.780Z,-2.68
2023-03-01T03:59:03.752Z,-2.68
2023-03-01T03:59:53.751Z,-2.68
2023-03-01T04:00:43.728Z,-2.65
2023-03-01T04:01:33.773Z,-2.65
2023-03-01T04:02:23.718Z,-2.61
2023-03-01T04:03:13.719Z,-2.56
2023-03-01T04:04:03.731Z,-2.53
2023-03-01T04:04:53.704Z,-2.50
2023-03-01T04:05:43.702Z,-2.50
2023-03-01T04:06:33.682Z,-2.48
2023-03-01T04:07:23.650Z,-2.43
2023-03-01T04:08:13.639Z,-2.40
2023-03-01T04:09:03.652Z,-2.29
2023-03-01T04:09:53.639Z,-2.25
2023-03-01T04:10:43.625Z,-2.16
2023-03-01T04:11:33.616Z,-2.08
2023-03-01T04:12:23.613Z,-2.01
2023-03-01T04:13:13.587Z,-1.96
2023-03-01T04:14:03.582Z,-1.95
2023-03-01T04:14:53.589Z,-1.98
2023-03-01T04:15:43.556Z,-1.98
2023-03-01T04:16:34.019Z,-1.98
2023-03-01T04:17:23.532Z,-1.95
2023-03-01T04:18:13.591Z,-1.89
2023-03-01T04:19:03.540Z,-1.86
2023-03-01T04:19:53.526Z,-1.82
2023-03-01T04:20:43.501Z,-1.83
2023-03-01T04:21:33.501Z,-1.78
2023-03-01T04:22:23.491Z,-1.75
2023-03-01T04:23:13.484Z,-1.75
2023-03-01T04:24:03.494Z,-1.78
2023-03-01T04:24:53.484Z,-1.80
2023-03-01T04:25:43.468Z,-1.82
2023-03-01T04:26:33.560Z,-1.83
2023-03-01T04:27:23.417Z,-1.83
2023-03-01T04:28:13.415Z,-1.82
2023-03-01T04:29:03.423Z,-1.82
2023-03-01T04:29:53.433Z,-1.83
2023-03-01T04:30:43.437Z,-1.83
2023-03-01T04:31:33.429Z,-1.83
2023-03-01T04:32:23.411Z,-1.83
2023-03-01T04:33:13.391Z,-1.85
2023-03-01T04:34:03.386Z,-1.86
2023-03-01T04:34:53.358Z,-1.86
2023-03-01T04:35:43.445Z,-1.86
2023-03-01T04:36:33.627Z,-1.86
2023-03-01T04:37:23.346Z,-1.86
2023-03-01T04:38:13.332Z,-1.85
2023-03-01T04:39:03.319Z,-1.83
2023-03-01T04:39:53.285Z,-1.83
2023-03-01T04:40:43.300Z,-1.85
2023-03-01T04:41:33.284Z,-1.83
2023-03-01T04:42:23.291Z,-1.82
2023-03-01T04:43:13.269Z,-1.78
2023-03-01T04:44:03.272Z,-1.75
2023-03-01T04:44:53.255Z,-1.75
2023-03-01T04:45:43.323Z,-1.72
2023-03-01T04:46:33.559Z,-1.75
2023-03-01T04:47:23.228Z,-1.74
2023-03-01T04:48:13.219Z,-1.74
2023-03-01T04:49:03.214Z,-1.74
2023-03-01T04:49:53.198Z,-1.75
2023-03-01T04:50:43.186Z,-1.72
2023-03-01T04:51:33.172Z,-1.75
2023-03-01T04:52:23.178Z,-1.77
2023-03-01T04:53:13.133Z,-1.77
2023-03-01T04:54:03.171Z,-1.77
2023-03-01T04:54:53.165Z,-1.78
2023-03-01T04:55:43.154Z,-1.77
2023-03-01T04:56:33.417Z,-1.74
2023-03-01T04:57:23.122Z,-1.70
2023-03-01T04:58:13.108Z,-1.68
2023-03-01T04:59:03.108Z,-1.68
2023-03-01T04:59:53.098Z,-1.65
2023-03-01T05:00:43.087Z,-1.64
2023-03-01T05:01:33.076Z,-1.62
2023-03-01T05:02:23.071Z,-1.62
2023-03-01T05:03:13.035Z,-1.59
2023-03-01T05:04:03.151Z,-1.57
2023-03-01T05:04:53.025Z,-1.57
2023-03-01T05:05:43.033Z,-1.57
2023-03-01T05:06:33.429Z,-1.57
2023-03-01T05:07:23.000Z,-1.54
2023-03-01T05:08:12.998Z,-1.51
2023-03-01T05:09:03.010Z,-1.50
2023-03-01T05:09:55.026Z,-1.49
2023-03-01T05:10:42.975Z,-1.50
2023-03-01T05:11:32.967Z,-1.49
2023-03-01T05:12:22.967Z,-1.47
2023-03-01T05:13:12.942Z,-1.49
2023-03-01T05:14:02.932Z,-1.49
2023-03-01T05:14:52.971Z,-1.49
2023-03-01T05:15:43.022Z,-1.49
2023-03-01T05:16:35.094Z,-1.47
2023-03-01T05:17:22.893Z,-1.46
2023-03-01T05:18:12.900Z,-1.44
2023-03-01T05:19:02.873Z,-1.47
2023-03-01T05:19:52.881Z,-1.41
2023-03-01T05:20:42.877Z,-1.39
2023-03-01T05:21:32.873Z,-1.38
2023-03-01T05:22:22.854Z,-1.35
2023-03-01T05:23:12.816Z,-1.33
2023-03-01T05:24:02.816Z,-1.33
2023-03-01T05:24:52.799Z,-1.31
2023-03-01T05:25:42.819Z,-1.28
2023-03-01T05:26:32.808Z,-1.23
2023-03-01T05:27:22.811Z,-1.25
2023-03-01T05:28:12.813Z,-1.21
2023-03-01T05:29:02.812Z,-1.21
2023-03-01T05:29:52.776Z,-1.20
2023-03-01T05:30:42.746Z,-1.20
2023-03-01T05:31:32.747Z,-1.18
2023-03-01T05:32:22.787Z,-1.17
2023-03-01T05:33:12.739Z,-1.17
2023-03-01T05:34:02.728Z,-1.17
2023-03-01T05:34:52.736Z,-1.17
2023-03-01T05:35:42.767Z,-1.17
2023-03-01T05:36:33.166Z,-1.18
2023-03-01T05:37:22.695Z,-1.18
2023-03-01T05:38:12.653Z,-1.17
2023-03-01T05:39:02.682Z,-1.17
2023-03-01T05:39:52.655Z,-1.17
2023-03-01T05:40:42.645Z,-1.18
2023-03-01T05:41:32.647Z,-1.20
2023-03-01T05:42:22.636Z,-1.17
2023-03-01T05:43:12.606Z,-1.17
2023-03-01T05:44:02.614Z,-1.15
2023-03-01T05:44:52.602Z,-1.14
2023-03-01T05:45:42.606Z,-1.13
2023-03-01T05:46:32.892Z,-1.13
2023-03-01T05:47:22.572Z,-1.13
2023-03-01T05:48:12.596Z,-1.14
2023-03-01T05:49:02.551Z,-1.13
2023-03-01T05:49:52.559Z,-1.11
2023-03-01T05:50:42.557Z,-1.11
2023-03-01T05:51:32.530Z,-1.11
2023-03-01T05:52:22.532Z,-1.11
2023-03-01T05:53:12.504Z,-1.08
2023-03-01T05:54:02.489Z,-1.05
2023-03-01T05:54:52.534Z,-1.03
2023-03-01T05:55:42.481Z,-0.99
2023-03-01T05:56:32.761Z,-0.96
2023-03-01T05:57:22.463Z,-0.97
2023-03-01T05:58:12.449Z,-0.97
2023-03-01T05:59:02.475Z,-0.96
2023-03-01T05:59:52.448Z,-0.95
2023-03-01T06:00:42.428Z,-0.99
2023-03-01T06:01:32.432Z,-0.97
2023-03-01T06:02:22.423Z,-0.97
2023-03-01T06:03:12.396Z,-0.95
2023-03-01T06:04:02.406Z,-0.95
2023-03-01T06:04:52.491Z,-0.93
2023-03-01T06:05:42.471Z,-0.93
2023-03-01T06:06:32.638Z,-0.90
2023-03-01T06:07:22.360Z,-0.92
2023-03-01T06:08:12.345Z,-0.90
2023-03-01T06:09:02.317Z,-0.93
2023-03-01T06:09:52.350Z,-0.93
2023-03-01T06:10:42.334Z,-0.96
2023-03-01T06:11:32.327Z,-0.97
2023-03-01T06:12:22.322Z,-0.97
2023-03-01T06:13:12.300Z,-0.93
2023-03-01T06:14:02.289Z,-0.89
2023-03-01T06:14:52.292Z,-0.83
2023-03-01T06:15:42.286Z,-0.78
2023-03-01T06:16:32.538Z,-0.76
2023-03-01T06:17:22.303Z,-0.71
2023-03-01T06:18:12.230Z,-0.67
2023-03-01T06:19:02.226Z,-0.63
2023-03-01T06:19:52.233Z,-0.63
2023-03-01T06:20:42.220Z,-0.63
2023-03-01T06:21:32.214Z,-0.67
2023-03-01T06:22:22.199Z,-0.65
2023-03-01T06:23:12.182Z,-0.63
2023-03-01T06:24:02.192Z,-0.68
2023-03-01T06:24:52.200Z,-0.70
2023-03-01T06:25:42.155Z,-0.71
2023-03-01T06:26:32.464Z,-0.71
2023-03-01T06:27:22.151Z,-0.68
2023-03-01T06:28:12.122Z,-0.65
2023-03-01T06:29:02.144Z,-0.62
2023-03-01T06:29:52.110Z,-0.60
2023-03-01T06:30:42.108Z,-0.59
2023-03-01T06:31:32.162Z,-0.55
2023-03-01T06:32:22.159Z,-0.53
2023-03-01T06:33:12.088Z,-0.50
2023-03-01T06:34:02.076Z,-0.52
2023-03-01T06:34:52.073Z,-0.49
2023-03-01T06:35:42.094Z,-0.50
2023-03-01T06:36:32.508Z,-0.50
2023-03-01T06:37:22.048Z,-0.50
2023-03-01T06:38:12.050Z,-0.49
2023-03-01T06:39:02.025Z,-0.50
2023-03-01T06:39:51.992Z,-0.49
2023-03-01T06:40:41.997Z,-0.49
2023-03-01T06:41:31.966Z,-0.47
2023-03-01T06:42:21.984Z,-0.47
2023-03-01T06:43:11.974Z,-0.47
2023-03-01T06:44:01.955Z,-0.45
2023-03-01T06:44:51.944Z,-0.45
2023-03-01T06:45:41.956Z,-0.47
2023-03-01T06:46:32.408Z,-0.44
2023-03-01T06:47:21.984Z,-0.44
2023-03-01T06:48:11.914Z,-0.44
2023-03-01T06:49:01.939Z,-0.44
2023-03-01T06:49:51.908Z,-0.41
2023-03-01T06:50:41.951Z,-0.39
2023-03-01T06:51:31.882Z,-0.38
2023-03-01T06:52:21.860Z,-0.34
2023-03-01T06:53:11.863Z,-0.34
2023-03-01T06:54:01.885Z,-0.32
2023-03-01T06:54:51.900Z,-0.27
2023-03-01T06:55:41.839Z,-0.27
2023-03-01T06:56:32.199Z,-0.26
2023-03-01T06:57:21.820Z,-0.24
2023-03-01T06:58:11.812Z,-0.23
2023-03-01T06:59:01.798Z,-0.21
2023-03-01T06:59:51.777Z,-0.19
2023-03-01T07:00:42.014Z,-0.16
2023-03-01T07:01:31.801Z,-0.14
2023-03-01T07:02:21.791Z,-0.13
2023-03-01T07:03:11.791Z,-0.12
2023-03-01T07:04:01.744Z,-0.12
2023-03-01T07:04:51.746Z,-0.12
2023-03-01T07:05:41.714Z,-0.12
2023-03-01T07:06:32.121Z,-0.09
2023-03-01T07:07:21.714Z,-0.06
2023-03-01T07:08:11.695Z,-0.06
2023-03-01T07:09:01.676Z,-0.06
2023-03-01T07:09:51.679Z,-0.08
2023-03-01T07:10:41.659Z,-0.05
2023-03-01T07:11:31.646Z,-0.03
2023-03-01T07:12:21.652Z,-0.03
2023-03-01T07:13:11.631Z,-0.02
2023-03-01T07:14:01.639Z,0.01
2023-03-01T07:14:51.610Z,-0.01
2023-03-01T07:15:41.670Z,0.04
2023-03-01T07:16:32.008Z,0.04
2023-03-01T07:17:21.598Z,0.05
2023-03-01T07:18:11.573Z,0.07
2023-03-01T07:19:01.623Z,0.07
2023-03-01T07:19:51.592Z,0.08
2023-03-01T07:20:41.554Z,0.08
2023-03-01T07:21:31.561Z,0.08
2023-03-01T07:22:21.543Z,0.08
2023-03-01T07:23:11.540Z,0.10
2023-03-01T07:24:01.520Z,0.13
2023-03-01T07:24:51.575Z,0.13
2023-03-01T07:25:41.523Z,0.15
2023-03-01T07:26:31.852Z,0.15
2023-03-01T07:27:21.478Z,0.16
2023-03-01T07:28:11.480Z,0.17
2023-03-01T07:29:01.472Z,0.16
2023-03-01T07:29:51.461Z,0.17
2023-03-01T07:30:41.467Z,0.16
2023-03-01T07:31:31.446Z,0.17
2023-03-01T07:32:21.548Z,0.17
2023-03-01T07:33:11.442Z,0.20
2023-03-01T07:34:01.430Z,0.20
2023-03-01T07:34:51.410Z,0.22
2023-03-01T07:35:41.422Z,0.23
2023-03-01T07:36:31.760Z,0.22
2023-03-01T07:37:21.396Z,0.25
2023-03-01T07:38:11.364Z,0.25
2023-03-01T07:39:01.384Z,0.25
2023-03-01T07:39:51.391Z,0.28
2023-03-01T07:40:41.328Z,0.28
2023-03-01T07:41:31.335Z,0.30
2023-03-01T07:42:21.351Z,0.31
2023-03-01T07:43:11.308Z,0.31
2023-03-01T07:44:01.336Z,0.34
2023-03-01T07:44:51.296Z,0.34
2023-03-01T07:45:41.326Z,0.35
2023-03-01T07:46:31.600Z,0.37
2023-03-01T07:47:21.281Z,0.38
2023-03-01T07:48:11.296Z,0.40
2023-03-01T07:49:01.241Z,0.40
2023-03-01T07:49:51.239Z,0.43
2023-03-01T07:50:41.268Z,0.44
2023-03-01T07:51:31.226Z,0.48
2023-03-01T07:52:21.244Z,0.48
2023-03-01T07:53:11.217Z,0.49
2023-03-01T07:54:01.212Z,0.52
2023-03-01T07:54:51.190Z,0.51
2023-03-01T07:55:41.175Z,0.53
2023-03-01T07:56:31.510Z,0.56
2023-03-01T07:57:21.156Z,0.60
2023-03-01T07:58:11.144Z,0.59
2023-03-01T07:59:01.138Z,0.63
2023-03-01T07:59:51.127Z,0.63
2023-03-01T08:00:41.142Z,0.67
2023-03-01T08:01:31.166Z,0.67
2023-03-01T08:02:21.119Z,0.68
2023-03-01T08:03:11.152Z,0.70
2023-03-01T08:04:01.089Z,0.70
2023-03-01T08:04:51.080Z,0.71
2023-03-01T08:05:41.058Z,0.71
2023-03-01T08:06:31.427Z,0.71
2023-03-01T08:07:21.046Z,0.72
2023-03-01T08:08:11.035Z,0.74
2023-03-01T08:09:01.045Z,0.75
2023-03-01T08:09:51.030Z,0.78
2023-03-01T08:10:41.012Z,0.78
2023-03-01T08:11:31.114Z,0.81
2023-03-01T08:12:20.999Z,0.80
2023-03-01T08:13:11.008Z,0.82
2023-03-01T08:14:00.968Z,0.81
2023-03-01T08:14:50.972Z,0.82
2023-03-01T08:15:40.940Z,0.82
2023-03-01T08:16:31.221Z,0.84
2023-03-01T08:17:20.926Z,0.86
2023-03-01T08:18:10.926Z,0.88
2023-03-01T08:19:00.915Z,0.88
2023-03-01T08:19:50.914Z,0.89
2023-03-01T08:20:40.903Z,0.90
2023-03-01T08:21:30.894Z,0.92
2023-03-01T08:22:20.892Z,0.93
2023-03-01T08:23:10.897Z,0.95
2023-03-01T08:24:00.873Z,0.93
2023-03-01T08:24:50.879Z,0.93
2023-03-01T08:25:40.841Z,0.96
2023-03-01T08:26:31.208Z,0.96
2023-03-01T08:27:20.832Z,0.96
2023-03-01T08:28:10.818Z,0.98
2023-03-01T08:29:00.823Z,1.00
2023-03-01T08:29:50.784Z,1.02
2023-03-01T08:30:40.799Z,1.00
2023-03-01T08:31:30.844Z,1.06
2023-03-01T08:32:20.866Z,1.02
2023-03-01T08:33:10.813Z,1.07
2023-03-01T08:34:00.771Z,1.08
2023-03-01T08:34:50.762Z,1.11
2023-03-01T08:35:40.774Z,1.10
2023-03-01T08:36:30.997Z,1.10
2023-03-01T08:37:20.752Z,1.10
2023-03-01T08:38:10.714Z,1.08
2023-03-01T08:39:00.744Z,1.08
2023-03-01T08:39:50.721Z,1.08
2023-03-01T08:40:40.679Z,1.08
2023-03-01T08:41:30.672Z,1.10
2023-03-01T08:42:20.680Z,1.08
2023-03-01T08:43:10.659Z,1.10
2023-03-01T08:44:00.663Z,1.11
2023-03-01T08:44:50.624Z,1.11
2023-03-01T08:45:40.661Z,1.10
2023-03-01T08:46:31.068Z,1.14
2023-03-01T08:47:20.619Z,1.13
2023-03-01T08:48:10.613Z,1.16
2023-03-01T08:49:00.609Z,1.17
2023-03-01T08:49:50.592Z,1.17
2023-03-01T08:50:42.354Z,1.20
2023-03-01T08:51:30.608Z,1.24
2023-03-01T08:52:20.559Z,1.21
2023-03-01T08:53:10.568Z,1.21
2023-03-01T08:54:00.550Z,1.25
2023-03-01T08:54:50.557Z,1.25
2023-03-01T08:55:40.520Z,1.28
2023-03-01T08:56:30.857Z,1.28
2023-03-01T08:57:20.502Z,1.28
2023-03-01T08:58:11.980Z,1.28
2023-03-01T08:59:00.506Z,1.28
2023-03-01T08:59:50.486Z,1.28
2023-03-01T09:00:40.446Z,1.29
2023-03-01T09:01:30.469Z,1.31
2023-03-01T09:02:20.508Z,1.35
2023-03-01T09:03:10.433Z,1.38
2023-03-01T09:04:00.489Z,1.42
2023-03-01T09:04:50.439Z,1.43
2023-03-01T09:05:40.392Z,1.44
2023-03-01T09:06:30.689Z,1.46
2023-03-01T09:07:20.416Z,1.46
2023-03-01T09:08:10.417Z,1.46
2023-03-01T09:09:00.370Z,1.46
2023-03-01T09:09:50.364Z,1.46
2023-03-01T09:10:40.375Z,1.49
2023-03-01T09:11:30.344Z,1.50
2023-03-01T09:12:20.334Z,1.53
2023-03-01T09:13:10.344Z,1.54
2023-03-01T09:14:00.304Z,1.54
2023-03-01T09:14:50.322Z,1.56
2023-03-01T09:15:40.313Z,1.60
2023-03-01T09:16:30.684Z,1.61
2023-03-01T09:17:20.269Z,1.61
2023-03-01T09:18:10.285Z,1.64
2023-03-01T09:19:00.256Z,1.64
2023-03-01T09:19:50.274Z,1.68
2023-03-01T09:20:40.253Z,1.71
2023-03-01T09:21:40.176Z,1.68
2023-03-01T09:22:21.233Z,1.68
2023-03-01T09:23:10.257Z,1.70
2023-03-01T09:24:00.225Z,1.67
2023-03-01T09:24:50.210Z,1.70
2023-03-01T09:25:40.209Z,1.71
2023-03-01T09:26:30.489Z,1.72
2023-03-01T09:27:20.187Z,1.72
2023-03-01T09:28:15.773Z,1.74
2023-03-01T09:29:01.172Z,1.81
2023-03-01T09:29:50.167Z,1.82
2023-03-01T09:30:40.287Z,1.85
2023-03-01T09:31:30.157Z,1.86
2023-03-01T09:32:20.183Z,1.86
2023-03-01T09:33:10.113Z,1.89
2023-03-01T09:34:00.126Z,1.89
2023-03-01T09:34:50.113Z,1.90
2023-03-01T09:35:40.083Z,1.89
2023-03-01T09:36:30.451Z,1.88
2023-03-01T09:37:20.072Z,1.89
2023-03-01T09:38:10.080Z,1.89
2023-03-01T09:39:00.053Z,1.89
2023-03-01T09:39:50.154Z,1.92
2023-03-01T09:40:40.029Z,1.89
2023-03-01T09:41:30.038Z,1.88
2023-03-01T09:42:19.999Z,1.90
2023-03-01T09:43:10.043Z,1.92
2023-03-01T09:44:00.005Z,1.90
2023-03-01T09:44:49.986Z,1.93
2023-03-01T09:45:39.990Z,1.90
2023-03-01T09:46:30.468Z,1.92
2023-03-01T09:47:19.961Z,1.95
2023-03-01T09:48:09.988Z,1.98
2023-03-01T09:48:59.936Z,2.01
2023-03-01T09:49:49.948Z,2.05
2023-03-01T09:50:39.915Z,2.04
2023-03-01T09:51:29.926Z,2.05
2023-03-01T09:52:19.908Z,2.07
2023-03-01T09:53:09.889Z,2.04
2023-03-01T09:53:59.919Z,2.05
2023-03-01T09:54:49.875Z,2.02
2023-03-01T09:55:39.877Z,2.04
2023-03-01T09:56:30.157Z,2.01
2023-03-01T09:57:19.853Z,2.01
2023-03-01T09:58:09.849Z,1.98
2023-03-01T09:58:59.819Z,1.98
2023-03-01T09:59:49.819Z,2.00
2023-03-01T10:00:39.829Z,1.98
2023-03-01T10:01:30.261Z,2.02
2023-03-01T10:02:19.807Z,2.02
2023-03-01T10:03:09.805Z,2.04
2023-03-01T10:03:59.836Z,2.05
2023-03-01T10:04:49.828Z,2.04
2023-03-01T10:05:39.756Z,2.02
2023-03-01T10:06:35.223Z,2.04
2023-03-01T10:07:20.752Z,2.02
2023-03-01T10:08:09.745Z,2.02
2023-03-01T10:08:59.719Z,2.05
2023-03-01T10:09:49.732Z,2.09
2023-03-01T10:10:39.716Z,2.12
2023-03-01T10:11:29.707Z,2.14
2023-03-01T10:12:19.692Z,2.14
2023-03-01T10:13:09.664Z,2.14
2023-03-01T10:13:59.670Z,2.15
2023-03-01T10:14:49.809Z,2.19
2023-03-01T10:15:39.659Z,2.22
2023-03-01T10:16:29.643Z,2.23
2023-03-01T10:17:20.436Z,2.25
2023-03-01T10:18:09.602Z,2.25
2023-03-01T10:18:59.623Z,2.25
2023-03-01T10:19:49.642Z,2.27
2023-03-01T10:20:39.596Z,2.32
2023-03-01T10:21:30.131Z,2.37
2023-03-01T10:22:19.584Z,2.38
2023-03-01T10:23:09.586Z,2.40
2023-03-01T10:23:59.565Z,2.44
2023-03-01T10:24:49.560Z,2.41
2023-03-01T10:25:40.875Z,2.43
2023-03-01T10:26:29.836Z,2.38
2023-03-01T10:27:19.523Z,2.37
2023-03-01T10:28:09.530Z,2.40
2023-03-01T10:28:59.503Z,2.45
2023-03-01T10:29:49.511Z,2.50
2023-03-01T10:30:39.497Z,2.55
2023-03-01T10:31:30.110Z,2.56
2023-03-01T10:32:19.494Z,2.56
2023-03-01T10:33:09.474Z,2.55
2023-03-01T10:33:59.450Z,2.55
2023-03-01T10:34:50.272Z,2.53
2023-03-01T10:35:39.449Z,2.55
2023-03-01T10:36:29.649Z,2.56
2023-03-01T10:37:19.410Z,2.59
2023-03-01T10:38:09.400Z,2.61
2023-03-01T10:38:59.399Z,2.65
2023-03-01T10:39:49.400Z,2.66
2023-03-01T10:40:39.403Z,2.69
2023-03-01T10:41:29.934Z,2.71
2023-03-01T10:42:19.918Z,2.76
2023-03-01T10:43:09.341Z,2.79
2023-03-01T10:43:59.358Z,2.80
2023-03-01T10:44:49.360Z,2.81
2023-03-01T10:45:39.328Z,2.80
2023-03-01T10:46:29.387Z,2.69
2023-03-01T10:47:19.290Z,2.65
2023-03-01T10:48:09.297Z,2.61
2023-03-01T10:48:59.337Z,2.63
2023-03-01T10:49:49.285Z,2.65
2023-03-01T10:50:41.332Z,2.69
2023-03-01T10:51:29.595Z,2.76